메인 페이지
METAR-TAF:

METAR-TAF

공항 :

Rarotonga, 쿡 제도

라로통가 국제공항

위도: 21-12S, 경도: 159-49W, 고도: 7m

현재 날씨관측

예보는 57분 전, 15:00시(UTC)에 발표되었습니다.
남남동3kt
온도 23°C
습도 94%
기압 1004 hPa
시정 10km 이상
고도 1800ft 상공 구름 조금

METAR: NCRG 191500Z 16003KT 9999 FEW018 23/22 Q1004

시각: 05:57 (15:57 UTC)

예보

예보는 4 시간 38분 전, 11:19시(UTC)에 발표되었습니다.
예보 대상 시간: 19일 12시부터 20일 12시까지 (UTC)
동남동5kt
시정 10km 이상
고도 1800ft 상공 구름 보통
고도 10000ft 상공 구름 보통

TAF: NCRG 191119Z 1912/2012 12005KT 9999 SCT018 SCT100

4,000개 이상의 공항 관측 자료 및 예보 (METAR 및 TAF 보고).

지도상에서 검색 가능한 기상관측소가 노란 점과 빨간 점으로 표시되어 있습니다.

기상관측소 명을 보려면 표시 위로 마우스를 이동하세요.

날씨 관측과 예보를 보려면 클릭하세요.

지도 변경 : 확대하려면 엑스 표시가 있는 녹색 버튼, 축소하려면 빼기 표시가 있는 녹색 버튼, 다음 페이지의 지도를 보려면 녹색 화살표를 클릭하세요.


METAR-TAF: